KJAS

Jasper County-Bell Field Airport

Jasper, Texas, USA
METAR KJAS 231615Z AUTO 17007KT 10SM SCT015 BKN021 BKN033 24/20 A3026 RMK AO2 T02390204
Observed Flight Rules
Feb-23 @ 16:15 UTC (23 minutes ago) Marginal Visual Flight Rules
Wind Visibility Clouds
170° at 7 knots 10 miles
  • Scattered at 1,500' AGL
  • Broken at 2,100' AGL
  • Broken at 3,300' AGL
Temperatures Readings
Current 24°C / 75°F
Dewpoint 20°C / 68°F
Humidity 78%
Altimeter 30.26" Hg
Pressure 1025 hPa
Elevation 65
METAR KJAS 231615Z AUTO 17007KT 10SM SCT015 BKN021 BKN033 24/20 A3026 RMK AO2 T02390204
Observed Flight Rules
Feb-23 @ 16:15 UTC
(23 minutes ago)
MVFR
Wind Visibility
170° at 7 knots 10 miles
Clouds
  • Scattered at 1,500' AGL
  • Broken at 2,100' AGL
  • Broken at 3,300' AGL
Temperature Dewpoint
24°C / 75°F 20°C / 68°F
Humidity Altimeter Pressure
78% 30.26" Hg 1025 hPa